Terminal Aerodrome Forecast
Issued by NWS Shreveport, LA

Home | Current Version | Previous Version | Text Only | Print | Product List | Glossary On
Versions: 1 2 3 4 5 6 7 8 9 10 11 12 13 14 15 16 17 18 19 20
000
FTUS44 KSHV 291624 AAB
TAFMLU
TAF AMD
KMLU 291624Z 2916/3012 18008KT P6SM FEW015 SCT025
     FM291700 19013G19KT P6SM SCT030
     FM300000 20008KT P6SM SKC
      TEMPO 3008/3012 4SM TSRA BR OVC010CB=

USA.gov is the U.S. government's official web portal to all federal, state and local government web resources and services.